sensor_id;sensor_type;location;lat;lon;timestamp;temperature;humidity
12845;DHT22;68700;48.534;9.196;2023-05-07T00:00:44;12.60;15.00
12845;DHT22;68700;48.534;9.196;2023-05-07T00:04:07;12.60;23.90
12845;DHT22;68700;48.534;9.196;2023-05-07T00:07:29;12.60;32.60
12845;DHT22;68700;48.534;9.196;2023-05-07T00:10:51;12.50;53.10
12845;DHT22;68700;48.534;9.196;2023-05-07T00:14:13;12.50;39.70
12845;DHT22;68700;48.534;9.196;2023-05-07T00:17:35;12.40;43.90
12845;DHT22;68700;48.534;9.196;2023-05-07T00:20:58;12.40;48.20
12845;DHT22;68700;48.534;9.196;2023-05-07T00:24:20;12.40;49.60
12845;DHT22;68700;48.534;9.196;2023-05-07T00:27:42;12.40;59.70
12845;DHT22;68700;48.534;9.196;2023-05-07T00:31:04;12.40;56.90
12845;DHT22;68700;48.534;9.196;2023-05-07T00:34:26;12.30;34.70
12845;DHT22;68700;48.534;9.196;2023-05-07T00:37:49;12.30;40.50
12845;DHT22;68700;48.534;9.196;2023-05-07T00:41:11;12.20;45.50
12845;DHT22;68700;48.534;9.196;2023-05-07T00:44:33;12.20;56.30
12845;DHT22;68700;48.534;9.196;2023-05-07T00:47:57;12.20;64.50
12845;DHT22;68700;48.534;9.196;2023-05-07T00:51:20;12.20;77.20
12845;DHT22;68700;48.534;9.196;2023-05-07T00:54:43;12.20;78.90
12845;DHT22;68700;48.534;9.196;2023-05-07T00:58:06;12.20;80.20
12845;DHT22;68700;48.534;9.196;2023-05-07T01:01:29;12.20;83.80
12845;DHT22;68700;48.534;9.196;2023-05-07T01:04:51;12.20;84.90
12845;DHT22;68700;48.534;9.196;2023-05-07T01:08:14;12.10;80.50
12845;DHT22;68700;48.534;9.196;2023-05-07T01:11:38;12.10;80.10
12845;DHT22;68700;48.534;9.196;2023-05-07T01:15:01;12.10;76.40
12845;DHT22;68700;48.534;9.196;2023-05-07T01:18:23;12.00;72.80
12845;DHT22;68700;48.534;9.196;2023-05-07T01:21:48;12.00;83.70
12845;DHT22;68700;48.534;9.196;2023-05-07T01:25:12;11.90;96.40
12845;DHT22;68700;48.534;9.196;2023-05-07T01:28:36;11.90;99.90
12845;DHT22;68700;48.534;9.196;2023-05-07T01:31:59;11.90;99.90
12845;DHT22;68700;48.534;9.196;2023-05-07T01:35:34;11.90;99.90
12845;DHT22;68700;48.534;9.196;2023-05-07T01:38:58;11.90;99.90
12845;DHT22;68700;48.534;9.196;2023-05-07T01:42:22;11.80;99.90
12845;DHT22;68700;48.534;9.196;2023-05-07T01:45:45;11.80;99.90
12845;DHT22;68700;48.534;9.196;2023-05-07T01:49:07;11.80;99.90
12845;DHT22;68700;48.534;9.196;2023-05-07T01:52:30;11.80;99.90
12845;DHT22;68700;48.534;9.196;2023-05-07T01:55:52;11.70;99.90
12845;DHT22;68700;48.534;9.196;2023-05-07T01:59:16;11.70;99.90
12845;DHT22;68700;48.534;9.196;2023-05-07T02:02:38;11.70;99.90
12845;DHT22;68700;48.534;9.196;2023-05-07T02:06:00;11.60;99.90
12845;DHT22;68700;48.534;9.196;2023-05-07T02:09:22;11.60;99.90
12845;DHT22;68700;48.534;9.196;2023-05-07T02:12:44;11.60;99.90
12845;DHT22;68700;48.534;9.196;2023-05-07T02:16:08;11.60;99.90
12845;DHT22;68700;48.534;9.196;2023-05-07T02:19:31;11.50;99.90
12845;DHT22;68700;48.534;9.196;2023-05-07T02:22:53;11.50;99.90
12845;DHT22;68700;48.534;9.196;2023-05-07T02:26:15;11.40;99.90
12845;DHT22;68700;48.534;9.196;2023-05-07T02:29:37;11.40;99.90
12845;DHT22;68700;48.534;9.196;2023-05-07T02:33:00;11.30;99.90
12845;DHT22;68700;48.534;9.196;2023-05-07T02:36:22;11.20;99.90
12845;DHT22;68700;48.534;9.196;2023-05-07T02:39:44;11.20;99.90
12845;DHT22;68700;48.534;9.196;2023-05-07T02:43:06;11.10;99.90
12845;DHT22;68700;48.534;9.196;2023-05-07T02:46:28;11.10;99.90
12845;DHT22;68700;48.534;9.196;2023-05-07T02:49:51;11.10;99.90
12845;DHT22;68700;48.534;9.196;2023-05-07T02:53:13;11.00;99.90
12845;DHT22;68700;48.534;9.196;2023-05-07T02:56:35;11.00;99.90
12845;DHT22;68700;48.534;9.196;2023-05-07T02:59:58;11.00;99.90
12845;DHT22;68700;48.534;9.196;2023-05-07T03:03:20;10.90;99.90
12845;DHT22;68700;48.534;9.196;2023-05-07T03:06:43;10.90;99.90
12845;DHT22;68700;48.534;9.196;2023-05-07T03:10:05;10.80;99.90
12845;DHT22;68700;48.534;9.196;2023-05-07T03:13:28;10.80;99.90
12845;DHT22;68700;48.534;9.196;2023-05-07T03:16:50;10.80;99.90
12845;DHT22;68700;48.534;9.196;2023-05-07T03:20:12;10.80;99.90
12845;DHT22;68700;48.534;9.196;2023-05-07T03:23:35;10.80;99.90
12845;DHT22;68700;48.534;9.196;2023-05-07T03:26:57;10.70;99.90
12845;DHT22;68700;48.534;9.196;2023-05-07T03:30:19;10.70;99.90
12845;DHT22;68700;48.534;9.196;2023-05-07T03:33:50;10.80;99.90
12845;DHT22;68700;48.534;9.196;2023-05-07T03:37:13;10.80;99.90
12845;DHT22;68700;48.534;9.196;2023-05-07T03:40:36;10.80;99.90
12845;DHT22;68700;48.534;9.196;2023-05-07T03:43:58;10.80;99.90
12845;DHT22;68700;48.534;9.196;2023-05-07T03:47:20;10.90;99.90
12845;DHT22;68700;48.534;9.196;2023-05-07T03:50:42;10.90;99.90
12845;DHT22;68700;48.534;9.196;2023-05-07T03:54:04;10.90;99.90
12845;DHT22;68700;48.534;9.196;2023-05-07T03:57:27;10.90;99.90
12845;DHT22;68700;48.534;9.196;2023-05-07T04:00:49;10.90;99.90
12845;DHT22;68700;48.534;9.196;2023-05-07T04:04:11;10.90;99.90
12845;DHT22;68700;48.534;9.196;2023-05-07T04:07:32;10.80;99.90
12845;DHT22;68700;48.534;9.196;2023-05-07T04:10:55;10.80;99.90
12845;DHT22;68700;48.534;9.196;2023-05-07T04:14:18;10.70;99.90
12845;DHT22;68700;48.534;9.196;2023-05-07T04:17:40;10.70;99.90
12845;DHT22;68700;48.534;9.196;2023-05-07T04:21:03;10.70;99.90
12845;DHT22;68700;48.534;9.196;2023-05-07T04:24:24;10.60;99.90
12845;DHT22;68700;48.534;9.196;2023-05-07T04:27:47;10.60;99.90
12845;DHT22;68700;48.534;9.196;2023-05-07T04:31:10;10.70;99.90
12845;DHT22;68700;48.534;9.196;2023-05-07T04:34:32;10.70;99.90
12845;DHT22;68700;48.534;9.196;2023-05-07T04:37:54;10.70;99.90
12845;DHT22;68700;48.534;9.196;2023-05-07T04:41:16;10.70;99.90
12845;DHT22;68700;48.534;9.196;2023-05-07T04:44:38;10.70;99.90
12845;DHT22;68700;48.534;9.196;2023-05-07T04:48:02;10.80;99.90
12845;DHT22;68700;48.534;9.196;2023-05-07T04:51:24;10.90;99.90
12845;DHT22;68700;48.534;9.196;2023-05-07T04:54:46;11.00;99.90
12845;DHT22;68700;48.534;9.196;2023-05-07T04:58:09;11.10;99.90
12845;DHT22;68700;48.534;9.196;2023-05-07T05:01:31;11.10;99.90
12845;DHT22;68700;48.534;9.196;2023-05-07T05:04:54;11.30;99.90
12845;DHT22;68700;48.534;9.196;2023-05-07T05:08:16;11.40;99.90
12845;DHT22;68700;48.534;9.196;2023-05-07T05:11:38;11.50;99.90
12845;DHT22;68700;48.534;9.196;2023-05-07T05:15:00;11.70;99.90
12845;DHT22;68700;48.534;9.196;2023-05-07T05:18:22;11.80;99.90
12845;DHT22;68700;48.534;9.196;2023-05-07T05:21:45;12.00;99.90
12845;DHT22;68700;48.534;9.196;2023-05-07T05:25:08;12.10;99.90
12845;DHT22;68700;48.534;9.196;2023-05-07T05:28:30;12.30;99.90
12845;DHT22;68700;48.534;9.196;2023-05-07T05:31:51;12.50;99.90
12845;DHT22;68700;48.534;9.196;2023-05-07T05:35:13;12.70;99.90
12845;DHT22;68700;48.534;9.196;2023-05-07T05:38:37;12.90;80.50
12845;DHT22;68700;48.534;9.196;2023-05-07T05:41:59;13.00;28.00
12845;DHT22;68700;48.534;9.196;2023-05-07T05:45:20;13.30;2.90
12845;DHT22;68700;48.534;9.196;2023-05-07T05:48:42;13.40;1.00
12845;DHT22;68700;48.534;9.196;2023-05-07T05:52:04;13.70;1.00
12845;DHT22;68700;48.534;9.196;2023-05-07T05:55:27;13.90;1.00
12845;DHT22;68700;48.534;9.196;2023-05-07T05:58:49;14.20;1.00
12845;DHT22;68700;48.534;9.196;2023-05-07T06:02:11;14.10;1.00
12845;DHT22;68700;48.534;9.196;2023-05-07T06:05:33;14.50;1.00
12845;DHT22;68700;48.534;9.196;2023-05-07T06:08:55;14.50;1.00
12845;DHT22;68700;48.534;9.196;2023-05-07T06:12:21;14.90;1.00
12845;DHT22;68700;48.534;9.196;2023-05-07T06:15:43;15.10;1.00
12845;DHT22;68700;48.534;9.196;2023-05-07T06:19:05;15.50;1.00
12845;DHT22;68700;48.534;9.196;2023-05-07T06:22:27;15.80;1.00
12845;DHT22;68700;48.534;9.196;2023-05-07T06:25:49;16.10;1.00
12845;DHT22;68700;48.534;9.196;2023-05-07T06:29:13;16.60;1.00
12845;DHT22;68700;48.534;9.196;2023-05-07T06:32:36;17.10;1.00
12845;DHT22;68700;48.534;9.196;2023-05-07T06:35:58;16.40;1.00
12845;DHT22;68700;48.534;9.196;2023-05-07T06:39:20;16.80;1.00
12845;DHT22;68700;48.534;9.196;2023-05-07T06:42:42;16.70;1.00
12845;DHT22;68700;48.534;9.196;2023-05-07T06:46:05;16.80;1.00
12845;DHT22;68700;48.534;9.196;2023-05-07T06:49:27;16.90;1.00
12845;DHT22;68700;48.534;9.196;2023-05-07T06:52:48;17.50;1.00
12845;DHT22;68700;48.534;9.196;2023-05-07T06:56:10;18.00;1.00
12845;DHT22;68700;48.534;9.196;2023-05-07T06:59:32;17.90;1.00
12845;DHT22;68700;48.534;9.196;2023-05-07T07:02:56;18.70;1.00
12845;DHT22;68700;48.534;9.196;2023-05-07T07:06:19;18.00;1.00
12845;DHT22;68700;48.534;9.196;2023-05-07T07:09:41;17.80;1.00
12845;DHT22;68700;48.534;9.196;2023-05-07T07:13:03;17.50;1.00
12845;DHT22;68700;48.534;9.196;2023-05-07T07:16:24;18.20;1.00
12845;DHT22;68700;48.534;9.196;2023-05-07T07:19:48;18.90;1.00
12845;DHT22;68700;48.534;9.196;2023-05-07T07:23:10;19.00;1.00
12845;DHT22;68700;48.534;9.196;2023-05-07T07:26:32;19.70;1.00
12845;DHT22;68700;48.534;9.196;2023-05-07T07:29:53;20.60;1.00
12845;DHT22;68700;48.534;9.196;2023-05-07T07:33:16;20.20;1.00
12845;DHT22;68700;48.534;9.196;2023-05-07T07:36:39;21.10;1.00
12845;DHT22;68700;48.534;9.196;2023-05-07T07:40:01;22.40;1.00
12845;DHT22;68700;48.534;9.196;2023-05-07T07:43:24;23.60;1.00
12845;DHT22;68700;48.534;9.196;2023-05-07T07:46:46;24.00;1.00
12845;DHT22;68700;48.534;9.196;2023-05-07T07:50:09;24.60;1.00
12845;DHT22;68700;48.534;9.196;2023-05-07T07:53:33;23.90;1.00
12845;DHT22;68700;48.534;9.196;2023-05-07T07:56:55;23.70;1.00
12845;DHT22;68700;48.534;9.196;2023-05-07T08:00:18;23.40;1.00
12845;DHT22;68700;48.534;9.196;2023-05-07T08:03:40;22.90;1.00
12845;DHT22;68700;48.534;9.196;2023-05-07T08:07:03;21.10;1.00
12845;DHT22;68700;48.534;9.196;2023-05-07T08:10:27;21.00;1.00
12845;DHT22;68700;48.534;9.196;2023-05-07T08:13:49;21.60;1.00
12845;DHT22;68700;48.534;9.196;2023-05-07T08:17:12;21.70;1.00
12845;DHT22;68700;48.534;9.196;2023-05-07T08:20:36;21.90;1.00
12845;DHT22;68700;48.534;9.196;2023-05-07T08:24:00;21.70;1.00
12845;DHT22;68700;48.534;9.196;2023-05-07T08:27:23;22.10;1.00
12845;DHT22;68700;48.534;9.196;2023-05-07T08:30:45;22.10;1.00
12845;DHT22;68700;48.534;9.196;2023-05-07T08:34:07;22.20;1.00
12845;DHT22;68700;48.534;9.196;2023-05-07T08:37:29;23.00;1.00
12845;DHT22;68700;48.534;9.196;2023-05-07T08:40:51;23.70;1.00
12845;DHT22;68700;48.534;9.196;2023-05-07T08:44:16;23.00;1.00
12845;DHT22;68700;48.534;9.196;2023-05-07T08:47:43;23.30;1.00
12845;DHT22;68700;48.534;9.196;2023-05-07T08:51:06;25.20;1.00
12845;DHT22;68700;48.534;9.196;2023-05-07T08:54:28;26.00;1.00
12845;DHT22;68700;48.534;9.196;2023-05-07T08:57:50;26.10;1.00
12845;DHT22;68700;48.534;9.196;2023-05-07T09:01:16;26.30;1.00
12845;DHT22;68700;48.534;9.196;2023-05-07T09:04:38;26.50;1.00
12845;DHT22;68700;48.534;9.196;2023-05-07T09:08:01;27.80;1.00
12845;DHT22;68700;48.534;9.196;2023-05-07T09:11:24;27.40;1.00
12845;DHT22;68700;48.534;9.196;2023-05-07T09:14:46;26.60;1.00
12845;DHT22;68700;48.534;9.196;2023-05-07T09:18:10;28.30;1.00
12845;DHT22;68700;48.534;9.196;2023-05-07T09:21:32;29.50;1.00
12845;DHT22;68700;48.534;9.196;2023-05-07T09:24:54;28.70;1.00
12845;DHT22;68700;48.534;9.196;2023-05-07T09:28:18;29.00;1.00
12845;DHT22;68700;48.534;9.196;2023-05-07T09:31:40;29.60;1.00
12845;DHT22;68700;48.534;9.196;2023-05-07T09:35:05;29.30;1.00
12845;DHT22;68700;48.534;9.196;2023-05-07T09:38:29;29.00;1.00
12845;DHT22;68700;48.534;9.196;2023-05-07T09:41:52;30.00;1.00
12845;DHT22;68700;48.534;9.196;2023-05-07T09:45:15;29.30;1.00
12845;DHT22;68700;48.534;9.196;2023-05-07T09:48:38;29.80;1.00
12845;DHT22;68700;48.534;9.196;2023-05-07T09:52:04;30.80;1.00
12845;DHT22;68700;48.534;9.196;2023-05-07T09:55:29;31.00;1.00
12845;DHT22;68700;48.534;9.196;2023-05-07T09:58:52;31.40;1.00
12845;DHT22;68700;48.534;9.196;2023-05-07T10:02:16;31.50;1.40
12845;DHT22;68700;48.534;9.196;2023-05-07T10:05:40;29.70;99.90
12845;DHT22;68700;48.534;9.196;2023-05-07T10:09:04;28.90;99.90
12845;DHT22;68700;48.534;9.196;2023-05-07T10:12:27;29.80;99.90
12845;DHT22;68700;48.534;9.196;2023-05-07T10:15:51;30.80;1.00
12845;DHT22;68700;48.534;9.196;2023-05-07T10:19:14;29.80;99.90
12845;DHT22;68700;48.534;9.196;2023-05-07T10:22:40;30.70;1.00
12845;DHT22;68700;48.534;9.196;2023-05-07T10:26:06;30.60;1.00
12845;DHT22;68700;48.534;9.196;2023-05-07T10:29:45;30.10;99.90
12845;DHT22;68700;48.534;9.196;2023-05-07T10:33:12;30.40;99.90
12845;DHT22;68700;48.534;9.196;2023-05-07T10:36:35;31.10;1.00
12845;DHT22;68700;48.534;9.196;2023-05-07T10:39:57;31.30;99.90
12845;DHT22;68700;48.534;9.196;2023-05-07T10:43:21;31.60;99.90
12845;DHT22;68700;48.534;9.196;2023-05-07T10:46:43;30.50;99.90
12845;DHT22;68700;48.534;9.196;2023-05-07T10:50:24;31.40;99.90
12845;DHT22;68700;48.534;9.196;2023-05-07T10:53:46;31.90;99.90
12845;DHT22;68700;48.534;9.196;2023-05-07T10:57:33;31.10;99.90
12845;DHT22;68700;48.534;9.196;2023-05-07T11:00:59;31.60;99.90
12845;DHT22;68700;48.534;9.196;2023-05-07T11:04:22;30.90;99.90
12845;DHT22;68700;48.534;9.196;2023-05-07T11:07:53;31.40;99.90
12845;DHT22;68700;48.534;9.196;2023-05-07T11:11:15;30.20;99.90
12845;DHT22;68700;48.534;9.196;2023-05-07T11:14:44;30.00;99.90
12845;DHT22;68700;48.534;9.196;2023-05-07T11:18:08;29.80;99.90
12845;DHT22;68700;48.534;9.196;2023-05-07T11:21:34;28.90;99.90
12845;DHT22;68700;48.534;9.196;2023-05-07T11:24:57;28.40;99.90
12845;DHT22;68700;48.534;9.196;2023-05-07T11:28:20;27.90;99.90
12845;DHT22;68700;48.534;9.196;2023-05-07T11:31:42;27.50;99.90
12845;DHT22;68700;48.534;9.196;2023-05-07T11:35:07;27.10;99.90
12845;DHT22;68700;48.534;9.196;2023-05-07T11:38:29;26.70;99.90
12845;DHT22;68700;48.534;9.196;2023-05-07T11:41:51;26.50;99.90
12845;DHT22;68700;48.534;9.196;2023-05-07T11:45:23;25.80;99.90
12845;DHT22;68700;48.534;9.196;2023-05-07T11:48:45;24.50;99.90
12845;DHT22;68700;48.534;9.196;2023-05-07T11:52:08;24.30;99.90
12845;DHT22;68700;48.534;9.196;2023-05-07T11:55:30;24.20;99.90
12845;DHT22;68700;48.534;9.196;2023-05-07T11:58:52;23.90;99.90
12845;DHT22;68700;48.534;9.196;2023-05-07T12:02:15;23.40;99.90
12845;DHT22;68700;48.534;9.196;2023-05-07T12:05:37;23.50;99.90
12845;DHT22;68700;48.534;9.196;2023-05-07T12:09:04;23.80;1.00
12845;DHT22;68700;48.534;9.196;2023-05-07T12:12:27;23.80;1.00
12845;DHT22;68700;48.534;9.196;2023-05-07T12:15:51;23.70;99.90
12845;DHT22;68700;48.534;9.196;2023-05-07T12:19:13;23.50;1.00
12845;DHT22;68700;48.534;9.196;2023-05-07T12:22:36;23.20;1.00
12845;DHT22;68700;48.534;9.196;2023-05-07T12:26:00;23.10;1.00
12845;DHT22;68700;48.534;9.196;2023-05-07T12:29:22;22.70;1.00
12845;DHT22;68700;48.534;9.196;2023-05-07T12:32:45;22.60;1.00
12845;DHT22;68700;48.534;9.196;2023-05-07T12:36:07;22.20;1.00
12845;DHT22;68700;48.534;9.196;2023-05-07T12:39:30;21.90;1.00
12845;DHT22;68700;48.534;9.196;2023-05-07T12:42:55;21.70;1.00
12845;DHT22;68700;48.534;9.196;2023-05-07T12:46:19;21.40;1.00
12845;DHT22;68700;48.534;9.196;2023-05-07T12:49:42;21.30;1.00
12845;DHT22;68700;48.534;9.196;2023-05-07T13:45:46;16.40;1.00
12845;DHT22;68700;48.534;9.196;2023-05-07T13:49:08;16.10;75.60
12845;DHT22;68700;48.534;9.196;2023-05-07T13:52:31;15.90;99.90
12845;DHT22;68700;48.534;9.196;2023-05-07T13:55:53;15.70;99.90
12845;DHT22;68700;48.534;9.196;2023-05-07T13:59:15;15.70;99.90
12845;DHT22;68700;48.534;9.196;2023-05-07T14:02:38;15.80;99.90
12845;DHT22;68700;48.534;9.196;2023-05-07T14:06:00;15.80;99.90
12845;DHT22;68700;48.534;9.196;2023-05-07T14:09:22;15.80;99.90
12845;DHT22;68700;48.534;9.196;2023-05-07T14:12:44;15.70;99.90
12845;DHT22;68700;48.534;9.196;2023-05-07T14:16:07;15.60;99.90
12845;DHT22;68700;48.534;9.196;2023-05-07T14:19:30;15.80;99.90
12845;DHT22;68700;48.534;9.196;2023-05-07T14:22:52;15.90;99.90
12845;DHT22;68700;48.534;9.196;2023-05-07T14:26:14;16.00;99.90
12845;DHT22;68700;48.534;9.196;2023-05-07T14:29:36;16.10;99.90
12845;DHT22;68700;48.534;9.196;2023-05-07T14:32:58;16.10;99.90
12845;DHT22;68700;48.534;9.196;2023-05-07T14:36:22;16.30;99.90
12845;DHT22;68700;48.534;9.196;2023-05-07T14:39:47;16.50;99.90
12845;DHT22;68700;48.534;9.196;2023-05-07T14:43:11;16.60;99.90
12845;DHT22;68700;48.534;9.196;2023-05-07T14:46:33;16.70;99.90
12845;DHT22;68700;48.534;9.196;2023-05-07T14:49:55;16.90;99.90
12845;DHT22;68700;48.534;9.196;2023-05-07T14:53:20;17.00;99.90
12845;DHT22;68700;48.534;9.196;2023-05-07T14:57:05;17.20;99.90
12845;DHT22;68700;48.534;9.196;2023-05-07T15:00:28;17.20;87.40
12845;DHT22;68700;48.534;9.196;2023-05-07T15:03:55;17.30;99.90
12845;DHT22;68700;48.534;9.196;2023-05-07T15:07:18;17.60;54.30
12845;DHT22;68700;48.534;9.196;2023-05-07T15:10:43;17.70;31.80
12845;DHT22;68700;48.534;9.196;2023-05-07T15:14:08;18.00;27.70
12845;DHT22;68700;48.534;9.196;2023-05-07T15:18:04;18.30;1.70
12845;DHT22;68700;48.534;9.196;2023-05-07T15:21:26;18.50;1.00
12845;DHT22;68700;48.534;9.196;2023-05-07T15:24:51;18.70;1.00
12845;DHT22;68700;48.534;9.196;2023-05-07T15:28:17;18.90;1.00
12845;DHT22;68700;48.534;9.196;2023-05-07T15:31:39;19.00;1.00
12845;DHT22;68700;48.534;9.196;2023-05-07T15:35:02;19.10;1.00
12845;DHT22;68700;48.534;9.196;2023-05-07T15:38:26;19.10;1.00
12845;DHT22;68700;48.534;9.196;2023-05-07T15:41:49;19.30;1.00
12845;DHT22;68700;48.534;9.196;2023-05-07T15:45:13;19.40;1.00
12845;DHT22;68700;48.534;9.196;2023-05-07T15:48:36;19.50;1.00
12845;DHT22;68700;48.534;9.196;2023-05-07T15:51:59;19.40;1.00
12845;DHT22;68700;48.534;9.196;2023-05-07T15:55:23;19.40;1.00
12845;DHT22;68700;48.534;9.196;2023-05-07T15:58:46;19.40;1.00
12845;DHT22;68700;48.534;9.196;2023-05-07T16:02:11;19.50;1.00
12845;DHT22;68700;48.534;9.196;2023-05-07T16:05:34;19.50;1.00
12845;DHT22;68700;48.534;9.196;2023-05-07T16:08:57;19.50;1.00
12845;DHT22;68700;48.534;9.196;2023-05-07T16:12:21;19.50;1.00
12845;DHT22;68700;48.534;9.196;2023-05-07T16:15:43;19.50;1.00
12845;DHT22;68700;48.534;9.196;2023-05-07T16:19:07;19.30;1.00
12845;DHT22;68700;48.534;9.196;2023-05-07T16:22:29;19.00;1.00
12845;DHT22;68700;48.534;9.196;2023-05-07T16:25:51;18.60;1.00
12845;DHT22;68700;48.534;9.196;2023-05-07T16:29:14;18.80;1.00
12845;DHT22;68700;48.534;9.196;2023-05-07T16:32:36;18.80;1.00
12845;DHT22;68700;48.534;9.196;2023-05-07T16:36:00;18.80;1.00
12845;DHT22;68700;48.534;9.196;2023-05-07T16:39:23;18.60;1.00
12845;DHT22;68700;48.534;9.196;2023-05-07T16:42:45;18.40;1.00
12845;DHT22;68700;48.534;9.196;2023-05-07T16:46:07;18.30;1.00
12845;DHT22;68700;48.534;9.196;2023-05-07T16:49:29;18.10;1.00
12845;DHT22;68700;48.534;9.196;2023-05-07T16:52:53;18.00;1.00
12845;DHT22;68700;48.534;9.196;2023-05-07T16:56:15;17.80;1.00
12845;DHT22;68700;48.534;9.196;2023-05-07T16:59:37;17.50;86.20
12845;DHT22;68700;48.534;9.196;2023-05-07T17:02:59;17.60;58.10
12845;DHT22;68700;48.534;9.196;2023-05-07T17:06:21;17.60;44.30
12845;DHT22;68700;48.534;9.196;2023-05-07T17:09:44;17.60;58.40
12845;DHT22;68700;48.534;9.196;2023-05-07T17:13:06;17.70;36.50
12845;DHT22;68700;48.534;9.196;2023-05-07T17:16:28;17.60;31.30
12845;DHT22;68700;48.534;9.196;2023-05-07T17:19:50;17.60;38.00
12845;DHT22;68700;48.534;9.196;2023-05-07T17:23:12;17.50;32.80
12845;DHT22;68700;48.534;9.196;2023-05-07T17:26:36;17.50;7.60
12845;DHT22;68700;48.534;9.196;2023-05-07T17:29:59;17.60;1.00
12845;DHT22;68700;48.534;9.196;2023-05-07T17:33:22;17.40;31.80
12845;DHT22;68700;48.534;9.196;2023-05-07T17:36:44;17.30;59.00
12845;DHT22;68700;48.534;9.196;2023-05-07T17:40:07;17.20;99.90
12845;DHT22;68700;48.534;9.196;2023-05-07T17:43:30;17.20;99.90
12845;DHT22;68700;48.534;9.196;2023-05-07T17:46:52;17.20;99.90
12845;DHT22;68700;48.534;9.196;2023-05-07T17:50:14;17.10;99.90
12845;DHT22;68700;48.534;9.196;2023-05-07T17:53:37;17.10;99.90
12845;DHT22;68700;48.534;9.196;2023-05-07T17:56:59;17.10;99.90
12845;DHT22;68700;48.534;9.196;2023-05-07T18:00:23;17.10;99.90
12845;DHT22;68700;48.534;9.196;2023-05-07T18:03:45;17.00;99.90
12845;DHT22;68700;48.534;9.196;2023-05-07T18:07:07;17.00;99.90
12845;DHT22;68700;48.534;9.196;2023-05-07T18:10:29;17.00;99.90
12845;DHT22;68700;48.534;9.196;2023-05-07T18:13:51;17.00;99.90
12845;DHT22;68700;48.534;9.196;2023-05-07T18:17:14;16.90;99.90
12845;DHT22;68700;48.534;9.196;2023-05-07T18:20:36;16.90;99.90
12845;DHT22;68700;48.534;9.196;2023-05-07T18:23:58;16.80;99.90
12845;DHT22;68700;48.534;9.196;2023-05-07T18:27:20;16.70;99.90
12845;DHT22;68700;48.534;9.196;2023-05-07T18:30:42;16.60;99.90
12845;DHT22;68700;48.534;9.196;2023-05-07T18:34:05;16.50;99.90
12845;DHT22;68700;48.534;9.196;2023-05-07T18:37:30;16.50;99.90
12845;DHT22;68700;48.534;9.196;2023-05-07T18:40:52;16.40;99.90
12845;DHT22;68700;48.534;9.196;2023-05-07T18:44:14;16.30;99.90
12845;DHT22;68700;48.534;9.196;2023-05-07T18:47:36;16.30;99.90
12845;DHT22;68700;48.534;9.196;2023-05-07T18:50:59;16.20;99.90
12845;DHT22;68700;48.534;9.196;2023-05-07T18:54:21;16.10;99.90
12845;DHT22;68700;48.534;9.196;2023-05-07T18:57:43;16.10;99.90
12845;DHT22;68700;48.534;9.196;2023-05-07T19:01:05;16.10;99.90
12845;DHT22;68700;48.534;9.196;2023-05-07T19:04:28;16.00;99.90
12845;DHT22;68700;48.534;9.196;2023-05-07T19:07:52;16.00;99.90
12845;DHT22;68700;48.534;9.196;2023-05-07T19:11:14;15.90;99.90
12845;DHT22;68700;48.534;9.196;2023-05-07T19:14:36;15.80;99.90
12845;DHT22;68700;48.534;9.196;2023-05-07T19:18:01;15.80;99.90
12845;DHT22;68700;48.534;9.196;2023-05-07T19:21:23;15.80;99.90
12845;DHT22;68700;48.534;9.196;2023-05-07T19:24:47;15.70;99.90
12845;DHT22;68700;48.534;9.196;2023-05-07T19:28:09;15.70;99.90
12845;DHT22;68700;48.534;9.196;2023-05-07T19:31:31;15.70;99.90
12845;DHT22;68700;48.534;9.196;2023-05-07T19:34:53;15.70;99.90
12845;DHT22;68700;48.534;9.196;2023-05-07T19:38:15;15.60;99.90
12845;DHT22;68700;48.534;9.196;2023-05-07T19:41:39;15.60;99.90
12845;DHT22;68700;48.534;9.196;2023-05-07T19:45:02;15.60;99.90
12845;DHT22;68700;48.534;9.196;2023-05-07T19:48:26;15.60;99.90
12845;DHT22;68700;48.534;9.196;2023-05-07T19:51:49;15.60;99.90
12845;DHT22;68700;48.534;9.196;2023-05-07T19:55:12;15.60;99.90
12845;DHT22;68700;48.534;9.196;2023-05-07T19:58:35;15.50;99.90
12845;DHT22;68700;48.534;9.196;2023-05-07T20:01:58;15.50;99.90
12845;DHT22;68700;48.534;9.196;2023-05-07T20:05:19;15.40;99.90
12845;DHT22;68700;48.534;9.196;2023-05-07T20:08:41;15.30;99.90
12845;DHT22;68700;48.534;9.196;2023-05-07T20:12:04;15.30;99.90
12845;DHT22;68700;48.534;9.196;2023-05-07T20:15:28;15.30;99.90
12845;DHT22;68700;48.534;9.196;2023-05-07T20:18:50;15.40;99.90
12845;DHT22;68700;48.534;9.196;2023-05-07T20:22:12;15.30;99.90
12845;DHT22;68700;48.534;9.196;2023-05-07T20:25:34;15.30;99.90
12845;DHT22;68700;48.534;9.196;2023-05-07T20:28:56;15.40;99.90
12845;DHT22;68700;48.534;9.196;2023-05-07T20:32:19;15.30;99.90
12845;DHT22;68700;48.534;9.196;2023-05-07T20:35:41;15.30;99.90
12845;DHT22;68700;48.534;9.196;2023-05-07T20:39:03;15.20;99.90
12845;DHT22;68700;48.534;9.196;2023-05-07T20:42:25;15.20;99.90
12845;DHT22;68700;48.534;9.196;2023-05-07T20:45:47;15.20;99.90
12845;DHT22;68700;48.534;9.196;2023-05-07T20:49:13;15.20;99.90
12845;DHT22;68700;48.534;9.196;2023-05-07T20:52:36;15.20;99.90
12845;DHT22;68700;48.534;9.196;2023-05-07T20:55:58;15.20;99.90
12845;DHT22;68700;48.534;9.196;2023-05-07T20:59:21;15.20;99.90
12845;DHT22;68700;48.534;9.196;2023-05-07T21:02:43;15.20;99.90
12845;DHT22;68700;48.534;9.196;2023-05-07T21:06:07;15.20;99.90
12845;DHT22;68700;48.534;9.196;2023-05-07T21:09:29;15.20;99.90
12845;DHT22;68700;48.534;9.196;2023-05-07T21:12:51;15.10;99.90
12845;DHT22;68700;48.534;9.196;2023-05-07T21:16:15;15.10;99.90
12845;DHT22;68700;48.534;9.196;2023-05-07T21:19:38;15.10;99.90
12845;DHT22;68700;48.534;9.196;2023-05-07T21:23:04;15.10;99.90
12845;DHT22;68700;48.534;9.196;2023-05-07T21:26:26;15.10;99.90
12845;DHT22;68700;48.534;9.196;2023-05-07T21:29:47;15.10;99.90
12845;DHT22;68700;48.534;9.196;2023-05-07T21:33:09;15.10;99.90
12845;DHT22;68700;48.534;9.196;2023-05-07T21:36:31;15.10;99.90
12845;DHT22;68700;48.534;9.196;2023-05-07T21:39:54;15.10;99.90
12845;DHT22;68700;48.534;9.196;2023-05-07T21:43:16;15.10;99.90
12845;DHT22;68700;48.534;9.196;2023-05-07T21:46:38;15.10;99.90
12845;DHT22;68700;48.534;9.196;2023-05-07T21:50:00;15.10;99.90
12845;DHT22;68700;48.534;9.196;2023-05-07T21:53:22;15.10;99.90
12845;DHT22;68700;48.534;9.196;2023-05-07T21:56:45;15.10;99.90
12845;DHT22;68700;48.534;9.196;2023-05-07T22:00:08;15.10;99.90
12845;DHT22;68700;48.534;9.196;2023-05-07T22:03:30;15.10;99.90
12845;DHT22;68700;48.534;9.196;2023-05-07T22:06:52;15.10;99.90
12845;DHT22;68700;48.534;9.196;2023-05-07T22:10:14;15.10;99.90
12845;DHT22;68700;48.534;9.196;2023-05-07T22:13:42;15.00;99.90
12845;DHT22;68700;48.534;9.196;2023-05-07T22:17:04;15.00;99.90
12845;DHT22;68700;48.534;9.196;2023-05-07T22:20:26;14.90;99.90